Time;durP1;ratioP1;P1;durP2;ratioP2;P2;SDS_P1;SDS_P2;PMS_P1;PMS_P2;Temp;Humidity;BMP_temperature;BMP_pressure;BME280_temperature;BME280_humidity;BME280_pressure;Samples;Min_cycle;Max_cycle;Signal;HPM_P1;HPM_P2
2022/01/12 00:00:39;;;;;;;14.07;9.83;;;0.40;62.80;;;;;;6251804;28;20475;-64
2022/01/12 00:03:44;;;;;;;13.57;10.10;;;0.40;62.80;;;;;;6251452;28;20467;-63
2022/01/12 00:06:48;;;;;;;20.83;13.27;;;0.40;63.10;;;;;;6252086;28;20470;-62
2022/01/12 00:09:51;;;;;;;17.73;11.60;;;0.30;63.20;;;;;;6250973;28;20963;-63
2022/01/12 00:12:54;;;;;;;13.53;10.13;;;0.30;63.30;;;;;;6252063;28;20486;-65
2022/01/12 00:16:01;;;;;;;14.40;10.27;;;0.20;63.50;;;;;;6251218;28;20466;-64
2022/01/12 00:19:04;;;;;;;11.80;8.37;;;0.10;64.10;;;;;;6250944;28;20486;-65
2022/01/12 00:22:08;;;;;;;11.53;7.57;;;0.10;64.10;;;;;;6250998;28;20470;-65
2022/01/12 00:25:26;;;;;;;13.33;7.90;;;0.10;64.40;;;;;;6250757;28;21032;-64
2022/01/12 00:35:19;;;;;;;9.13;7.07;;;0.00;64.80;;;;;;6160076;28;20482;-64
2022/01/12 00:38:25;;;;;;;9.50;6.47;;;0.10;64.90;;;;;;6250370;28;20466;-64
2022/01/12 00:41:29;;;;;;;9.07;7.50;;;0.10;65.00;;;;;;6249580;28;20830;-64
2022/01/12 00:44:35;;;;;;;9.33;6.97;;;0.00;64.80;;;;;;6249133;28;20528;-64
2022/01/12 00:47:40;;;;;;;10.03;7.67;;;0.00;64.80;;;;;;6240089;28;20490;-64
2022/01/12 00:50:44;;;;;;;9.70;7.03;;;-0.10;65.20;;;;;;6249802;28;20490;-64
2022/01/12 00:53:47;;;;;;;8.87;7.00;;;-0.10;65.50;;;;;;6250046;28;20471;-64
2022/01/12 00:56:51;;;;;;;13.67;7.67;;;-0.10;65.50;;;;;;6249015;28;20467;-64
2022/01/12 00:59:54;;;;;;;12.10;8.07;;;-0.20;65.50;;;;;;6248544;28;20487;-64
2022/01/12 01:02:59;;;;;;;9.07;7.03;;;-0.20;66.30;;;;;;6230481;28;20478;-64
2022/01/12 01:06:02;;;;;;;9.60;6.90;;;-0.20;66.40;;;;;;6225679;28;20486;-64
2022/01/12 01:09:06;;;;;;;11.67;7.60;;;-0.20;66.50;;;;;;6225261;28;20975;-64
2022/01/12 01:12:10;;;;;;;12.03;8.07;;;-0.30;66.50;;;;;;6225705;28;20475;-64
2022/01/12 01:15:17;;;;;;;7.80;6.73;;;-0.30;66.90;;;;;;6225750;28;20476;-64
2022/01/12 01:28:26;;;;;;;10.43;7.47;;;-0.50;67.80;;;;;;6225255;28;20477;-64
2022/01/12 01:31:32;;;;;;;14.60;9.07;;;-0.50;68.00;;;;;;6225432;28;20467;-64
2022/01/12 01:34:42;;;;;;;10.77;7.90;;;-0.50;68.10;;;;;;6225258;28;20476;-64
2022/01/12 01:37:46;;;;;;;8.73;7.80;;;-0.60;68.50;;;;;;6225602;28;20440;-64
2022/01/12 01:40:49;;;;;;;12.60;8.90;;;-0.70;68.60;;;;;;6225478;28;20495;-65
2022/01/12 01:44:09;;;;;;;12.13;8.20;;;-0.60;69.10;;;;;;6225183;28;20899;-65
2022/01/12 01:53:57;;;;;;;14.73;8.97;;;-0.70;69.60;;;;;;6224958;28;20482;-64
2022/01/12 01:57:00;;;;;;;12.73;8.60;;;-0.70;70.10;;;;;;6225390;28;20801;-65
2022/01/12 02:00:07;;;;;;;11.40;8.43;;;-0.80;70.10;;;;;;6224672;28;20844;-65
2022/01/12 02:03:10;;;;;;;14.67;10.50;;;-0.70;70.40;;;;;;6225533;28;20472;-65
2022/01/12 02:06:16;;;;;;;15.30;9.90;;;-0.80;70.50;;;;;;6224894;28;20472;-65
2022/01/12 02:09:19;;;;;;;12.37;10.30;;;-0.80;70.40;;;;;;6227686;28;20813;-65
2022/01/12 02:12:27;;;;;;;17.67;10.40;;;-0.80;70.60;;;;;;6229496;28;20491;-65
2022/01/12 02:15:30;;;;;;;16.27;12.17;;;-0.80;71.10;;;;;;6229488;28;20549;-65
2022/01/12 02:18:53;;;;;;;17.90;11.40;;;-0.90;71.30;;;;;;6229155;28;20472;-65
2022/01/12 02:35:44;;;;;;;16.37;11.00;;;-1.00;72.50;;;;;;6228671;28;20475;-64
2022/01/12 02:42:10;;;;;;;15.37;10.70;;;-1.10;73.20;;;;;;6228439;28;20479;-64
2022/01/12 02:55:16;;;;;;;17.20;9.87;;;-1.20;74.00;;;;;;6228405;28;20531;-64
2022/01/12 02:58:19;;;;;;;16.63;8.93;;;-1.20;74.20;;;;;;6228788;28;20472;-64
2022/01/12 03:04:57;;;;;;;18.20;10.07;;;-1.40;74.60;;;;;;6222856;28;20526;-64
2022/01/12 03:08:09;;;;;;;12.27;9.70;;;-1.40;75.60;;;;;;6228216;28;20460;-64
2022/01/12 03:11:17;;;;;;;12.53;9.87;;;-1.30;75.70;;;;;;6227975;28;20479;-64
2022/01/12 03:14:20;;;;;;;17.30;10.13;;;-1.30;75.50;;;;;;6228031;28;20525;-64
2022/01/12 03:17:23;;;;;;;15.63;10.60;;;-1.30;75.60;;;;;;6228208;28;20476;-64
2022/01/12 03:20:26;;;;;;;15.20;10.53;;;-1.30;75.90;;;;;;6227013;28;20475;-64
2022/01/12 03:23:29;;;;;;;15.13;9.30;;;-1.40;76.00;;;;;;6228154;28;20472;-64
2022/01/12 03:26:35;;;;;;;16.23;11.20;;;-1.40;76.70;;;;;;6227754;28;20472;-64
2022/01/12 03:29:41;;;;;;;19.57;11.30;;;-1.40;76.70;;;;;;6228063;28;20483;-64
2022/01/12 03:32:50;;;;;;;18.10;10.23;;;-1.40;76.90;;;;;;6227639;28;20610;-64
2022/01/12 03:36:13;;;;;;;12.87;9.47;;;-1.40;77.00;;;;;;6227890;28;20526;-63
2022/01/12 03:39:16;;;;;;;15.93;10.77;;;-1.30;77.10;;;;;;6227482;28;20480;-65
2022/01/12 03:42:20;;;;;;;16.20;9.80;;;-1.40;77.00;;;;;;6227410;28;20488;-65
2022/01/12 03:45:23;;;;;;;20.60;11.10;;;-1.50;77.20;;;;;;6227331;28;20472;-64
2022/01/12 03:48:26;;;;;;;16.13;9.70;;;-1.50;77.50;;;;;;6227541;28;20468;-64
2022/01/12 03:51:30;;;;;;;16.00;10.20;;;-1.50;77.50;;;;;;6227491;28;20479;-64
2022/01/12 03:54:33;;;;;;;18.13;10.77;;;-1.60;77.80;;;;;;6227291;28;20471;-64
2022/01/12 03:57:37;;;;;;;20.53;12.30;;;-1.50;78.20;;;;;;6226867;28;20475;-64
2022/01/12 04:00:40;;;;;;;15.63;10.50;;;-1.60;78.50;;;;;;6217592;28;20499;-64
2022/01/12 04:03:47;;;;;;;14.50;10.50;;;-1.70;78.90;;;;;;6227348;28;20467;-64
2022/01/12 04:10:19;;;;;;;15.67;10.23;;;-1.70;79.40;;;;;;6226735;28;20489;-64
2022/01/12 04:13:31;;;;;;;16.80;10.57;;;-1.70;79.80;;;;;;6226715;28;20479;-63
2022/01/12 04:16:34;;;;;;;17.63;10.30;;;-1.70;80.10;;;;;;6226824;28;20483;-63
2022/01/12 04:19:38;;;;;;;15.23;11.33;;;-1.60;80.40;;;;;;6227052;28;20456;-64
2022/01/12 04:26:04;;;;;;;15.93;11.47;;;-1.70;80.30;;;;;;6226694;28;20464;-63
2022/01/12 04:29:08;;;;;;;14.50;9.70;;;-1.60;80.50;;;;;;6225974;28;20530;-63
2022/01/12 04:32:12;;;;;;;17.37;10.40;;;-1.70;80.40;;;;;;6226059;28;20468;-63
2022/01/12 04:35:16;;;;;;;12.27;9.27;;;-1.70;80.60;;;;;;6226213;28;20479;-65
2022/01/12 04:38:22;;;;;;;14.00;9.97;;;-1.70;80.80;;;;;;6227438;28;20463;-63
2022/01/12 04:41:26;;;;;;;21.30;10.00;;;-1.70;81.10;;;;;;6226829;28;20476;-63
2022/01/12 04:44:30;;;;;;;12.43;9.77;;;-1.70;81.30;;;;;;6226391;28;20468;-63
2022/01/12 04:47:57;;;;;;;11.50;8.83;;;-1.80;81.20;;;;;;6226442;28;20502;-65
2022/01/12 04:51:00;;;;;;;14.83;9.77;;;-1.80;81.40;;;;;;6226079;28;20480;-66
2022/01/12 04:54:04;;;;;;;18.60;10.93;;;-1.90;81.70;;;;;;6226447;28;20530;-64
2022/01/12 04:57:07;;;;;;;15.77;10.33;;;-1.90;82.00;;;;;;6227031;28;20475;-64
2022/01/12 05:00:15;;;;;;;15.97;10.20;;;-1.90;82.20;;;;;;6226440;28;20534;-63
2022/01/12 05:06:54;;;;;;;17.23;10.37;;;-2.00;82.60;;;;;;6225967;28;20491;-63
2022/01/12 05:13:20;;;;;;;16.90;11.50;;;-2.00;83.20;;;;;;6224790;28;20484;-65
2022/01/12 05:16:25;;;;;;;15.90;10.73;;;-2.00;83.40;;;;;;6225685;28;20467;-65
2022/01/12 05:19:29;;;;;;;17.97;11.67;;;-1.90;83.70;;;;;;6225334;28;20472;-65
2022/01/12 05:22:32;;;;;;;14.93;10.93;;;-1.90;84.00;;;;;;6225471;28;20490;-65
2022/01/12 05:25:35;;;;;;;19.23;11.43;;;-2.00;83.50;;;;;;6225416;28;20537;-63
2022/01/12 05:28:39;;;;;;;20.73;12.57;;;-2.00;83.90;;;;;;6225559;28;20440;-66
2022/01/12 05:31:43;;;;;;;15.63;10.10;;;-2.00;84.10;;;;;;6225218;28;20468;-65
2022/01/12 05:34:46;;;;;;;16.37;10.57;;;-2.00;84.10;;;;;;6225901;28;20503;-63
2022/01/12 05:37:50;;;;;;;17.57;10.60;;;-2.00;84.10;;;;;;6225342;28;20535;-65
2022/01/12 05:40:55;;;;;;;19.50;11.57;;;-2.00;84.10;;;;;;6225283;28;20757;-64
2022/01/12 05:43:58;;;;;;;18.53;10.53;;;-2.00;84.90;;;;;;6227383;28;20455;-64
2022/01/12 05:47:05;;;;;;;22.30;12.50;;;-2.10;84.30;;;;;;6230007;28;21464;-64
2022/01/12 05:50:08;;;;;;;19.37;12.27;;;-2.10;84.70;;;;;;6229978;28;20464;-64
2022/01/12 05:53:11;;;;;;;15.47;11.20;;;-2.10;85.30;;;;;;6229977;28;20463;-66
2022/01/12 05:56:14;;;;;;;16.93;10.80;;;-2.10;85.40;;;;;;6230227;28;20464;-66
2022/01/12 05:59:17;;;;;;;19.60;10.97;;;-2.00;85.50;;;;;;6229571;28;20467;-66
2022/01/12 06:02:22;;;;;;;18.97;11.93;;;-2.10;85.10;;;;;;6229291;28;20475;-66
2022/01/12 06:05:25;;;;;;;16.70;10.57;;;-2.10;85.10;;;;;;6225180;28;20493;-64
2022/01/12 06:08:28;;;;;;;17.50;11.10;;;-2.00;85.00;;;;;;6229229;28;20534;-65
2022/01/12 06:11:31;;;;;;;16.70;10.50;;;-2.10;85.00;;;;;;6228870;28;20479;-65
2022/01/12 06:14:35;;;;;;;13.87;10.07;;;-2.10;85.30;;;;;;6229536;28;20471;-63
2022/01/12 06:17:39;;;;;;;15.93;12.43;;;-2.20;85.30;;;;;;6229307;28;20529;-65
2022/01/12 06:20:42;;;;;;;15.87;11.53;;;-2.20;86.10;;;;;;6229703;28;20537;-63
2022/01/12 06:23:45;;;;;;;17.80;12.00;;;-2.30;86.00;;;;;;6228843;28;20467;-64
2022/01/12 06:26:49;;;;;;;20.30;13.90;;;-2.30;87.10;;;;;;6229718;28;20472;-64
2022/01/12 06:30:03;;;;;;;16.17;10.57;;;-2.30;87.10;;;;;;6229138;28;20472;-64
2022/01/12 06:33:08;;;;;;;13.90;10.63;;;-2.30;86.80;;;;;;6229098;28;20472;-64
2022/01/12 06:36:13;;;;;;;19.30;11.53;;;-2.30;87.40;;;;;;6228831;28;20471;-64
2022/01/12 06:39:20;;;;;;;16.83;12.10;;;-2.20;87.20;;;;;;6228375;28;20483;-64
2022/01/12 06:42:23;;;;;;;30.83;11.77;;;-2.20;87.20;;;;;;6228670;28;20562;-67
2022/01/12 06:45:26;;;;;;;17.27;12.33;;;-2.20;86.90;;;;;;6228599;28;20487;-64
2022/01/12 06:48:31;;;;;;;35.43;13.00;;;-2.20;86.80;;;;;;6228759;28;20854;-64
2022/01/12 06:51:34;;;;;;;23.33;12.00;;;-2.20;87.20;;;;;;6236015;28;20471;-64
2022/01/12 06:54:37;;;;;;;27.13;13.80;;;-2.20;87.20;;;;;;6251754;28;20475;-64
2022/01/12 06:57:40;;;;;;;19.67;11.00;;;-2.20;87.20;;;;;;6253139;28;20479;-65
2022/01/12 07:00:43;;;;;;;20.90;12.83;;;-2.20;87.20;;;;;;6252722;28;20966;-65
2022/01/12 07:03:48;;;;;;;23.43;11.80;;;-2.20;87.10;;;;;;6252888;28;20467;-65
2022/01/12 07:06:51;;;;;;;21.60;12.60;;;-2.20;87.20;;;;;;6244001;28;20468;-66
2022/01/12 07:09:54;;;;;;;20.23;13.17;;;-2.20;87.60;;;;;;6251975;28;21020;-66
2022/01/12 07:12:58;;;;;;;21.30;12.10;;;-2.10;87.70;;;;;;6241319;28;20475;-65
2022/01/12 07:16:01;;;;;;;28.63;14.30;;;-2.10;87.50;;;;;;6251998;28;20498;-65
2022/01/12 07:19:05;;;;;;;23.63;13.80;;;-2.00;87.40;;;;;;6252941;28;21119;-65
2022/01/12 07:22:09;;;;;;;28.73;15.00;;;-2.00;87.40;;;;;;6252938;28;20474;-65
2022/01/12 07:25:12;;;;;;;28.50;16.17;;;-2.00;87.10;;;;;;6253107;28;20554;-65
2022/01/12 07:28:15;;;;;;;25.50;13.43;;;-2.00;86.80;;;;;;6252877;28;20467;-64
2022/01/12 07:31:18;;;;;;;24.33;13.27;;;-2.00;87.10;;;;;;6251666;28;20479;-64
2022/01/12 07:34:23;;;;;;;26.23;14.93;;;-2.00;87.40;;;;;;6252356;28;20978;-65
2022/01/12 07:37:26;;;;;;;16.23;12.60;;;-2.00;87.90;;;;;;6251775;28;20975;-64
2022/01/12 07:40:29;;;;;;;15.90;13.20;;;-1.90;88.00;;;;;;6252094;28;20569;-65
2022/01/12 07:43:33;;;;;;;28.73;12.97;;;-1.90;87.90;;;;;;6252203;28;20479;-64
2022/01/12 07:46:36;;;;;;;20.87;11.87;;;-1.80;87.80;;;;;;6251638;28;20475;-65
2022/01/12 07:49:40;;;;;;;19.30;12.60;;;-1.80;87.60;;;;;;6251138;28;20467;-65
2022/01/12 07:52:44;;;;;;;18.30;13.40;;;-1.80;87.80;;;;;;6252082;28;20412;-65
2022/01/12 07:55:47;;;;;;;18.73;12.90;;;-1.70;88.00;;;;;;6250694;28;20470;-65
2022/01/12 07:58:50;;;;;;;37.63;23.10;;;-1.60;88.20;;;;;;6251780;28;20456;-65
2022/01/12 08:01:58;;;;;;;20.60;14.70;;;-1.60;88.00;;;;;;6251302;28;20462;-65
2022/01/12 08:05:03;;;;;;;26.90;15.27;;;-1.60;88.30;;;;;;6251909;28;20455;-64
2022/01/12 08:08:06;;;;;;;20.93;13.07;;;-1.50;88.60;;;;;;6249764;28;20467;-65
2022/01/12 08:11:09;;;;;;;20.40;14.53;;;-1.40;88.20;;;;;;6249408;28;20482;-66
2022/01/12 08:14:13;;;;;;;20.73;13.73;;;-1.30;88.10;;;;;;6250266;28;20463;-66
2022/01/12 08:17:16;;;;;;;21.30;14.10;;;-1.30;88.60;;;;;;6250675;28;20943;-64
2022/01/12 08:20:26;;;;;;;18.90;13.67;;;-1.20;88.90;;;;;;6250888;28;20474;-66
2022/01/12 08:23:29;;;;;;;21.80;14.33;;;-1.10;89.00;;;;;;6247391;28;20796;-65
2022/01/12 08:26:32;;;;;;;19.27;14.80;;;-1.00;88.80;;;;;;6235050;28;20470;-66
2022/01/12 08:29:36;;;;;;;26.60;15.80;;;-0.90;88.70;;;;;;6250808;28;20475;-66
2022/01/12 08:32:39;;;;;;;27.90;17.70;;;-0.80;88.60;;;;;;6250899;28;20474;-65
2022/01/12 08:35:43;;;;;;;20.77;15.43;;;-0.70;88.50;;;;;;6251260;28;20923;-66
2022/01/12 08:38:47;;;;;;;30.90;16.20;;;-0.60;88.30;;;;;;6250730;28;20470;-66
2022/01/12 08:41:50;;;;;;;30.00;18.40;;;-0.50;88.30;;;;;;6226611;28;20850;-66
2022/01/12 08:45:09;;;;;;;27.83;14.60;;;-0.40;88.10;;;;;;6226165;28;20539;-65
2022/01/12 08:48:12;;;;;;;21.70;16.77;;;-0.30;87.70;;;;;;6225748;28;21224;-65
2022/01/12 08:51:18;;;;;;;20.47;15.63;;;-0.20;87.30;;;;;;6225774;28;20979;-64
2022/01/12 08:54:21;;;;;;;20.47;13.70;;;-0.10;87.00;;;;;;6246432;28;20474;-65
2022/01/12 08:57:25;;;;;;;23.50;16.00;;;-0.10;86.70;;;;;;6250201;28;20818;-65
2022/01/12 09:00:28;;;;;;;27.13;15.37;;;0.00;86.10;;;;;;6249663;28;20473;-65
2022/01/12 09:03:31;;;;;;;24.37;14.40;;;0.10;85.90;;;;;;6250217;28;20487;-66
2022/01/12 09:06:36;;;;;;;19.20;15.43;;;0.10;85.50;;;;;;6250203;28;20475;-65
2022/01/12 09:09:39;;;;;;;24.70;15.73;;;0.10;85.80;;;;;;6249807;28;20482;-65
2022/01/12 09:12:43;;;;;;;25.93;16.43;;;0.10;85.40;;;;;;6249933;28;20476;-64
2022/01/12 09:15:46;;;;;;;19.90;14.80;;;0.10;85.80;;;;;;6249417;28;20905;-66
2022/01/12 09:18:49;;;;;;;23.50;15.37;;;0.00;86.00;;;;;;6239436;28;20475;-64
2022/01/12 09:21:54;;;;;;;24.77;16.13;;;0.00;86.10;;;;;;6249541;28;20479;-64
2022/01/12 09:24:57;;;;;;;21.87;14.67;;;0.10;86.20;;;;;;6249325;28;20549;-62
2022/01/12 09:28:02;;;;;;;18.17;12.90;;;0.20;86.20;;;;;;6249055;28;20498;-63
2022/01/12 09:31:05;;;;;;;22.40;14.10;;;0.30;85.50;;;;;;6249295;28;20475;-64
2022/01/12 09:34:09;;;;;;;19.80;12.97;;;0.30;84.70;;;;;;6249461;28;20564;-64
2022/01/12 09:37:13;;;;;;;21.10;14.20;;;0.30;84.90;;;;;;6249720;28;20475;-63
2022/01/12 09:40:16;;;;;;;21.90;14.53;;;0.40;85.20;;;;;;6249094;28;20475;-64
2022/01/12 09:43:20;;;;;;;19.97;13.57;;;0.50;84.70;;;;;;6249096;28;20830;-64
2022/01/12 09:46:25;;;;;;;19.67;14.57;;;0.30;84.00;;;;;;6249218;28;20992;-62
2022/01/12 09:49:29;;;;;;;20.30;15.43;;;0.40;85.00;;;;;;6249297;28;20962;-63
2022/01/12 09:52:33;;;;;;;19.83;14.07;;;0.50;84.40;;;;;;6249410;28;20482;-63
2022/01/12 09:55:37;;;;;;;32.83;16.53;;;0.60;84.00;;;;;;6249531;28;20482;-62
2022/01/12 09:58:40;;;;;;;26.53;17.30;;;0.50;84.70;;;;;;6250449;28;20462;-62
2022/01/12 10:01:46;;;;;;;19.27;13.53;;;0.60;85.10;;;;;;6250150;28;20939;-64
2022/01/12 10:05:01;;;;;;;23.33;13.93;;;0.70;84.30;;;;;;6251369;28;20604;-65
2022/01/12 10:08:13;;;;;;;17.77;12.10;;;0.90;82.90;;;;;;6249239;28;20480;-62
2022/01/12 10:11:17;;;;;;;17.03;11.67;;;1.00;81.80;;;;;;6249162;28;20471;-63
2022/01/12 10:14:21;;;;;;;16.33;11.47;;;1.10;80.50;;;;;;6249070;28;20471;-62
2022/01/12 10:17:32;;;;;;;18.47;12.63;;;1.10;79.90;;;;;;6249758;28;20459;-62
2022/01/12 10:20:45;;;;;;;19.83;15.77;;;1.20;80.30;;;;;;6244968;28;20911;-61
2022/01/12 10:23:58;;;;;;;14.17;11.73;;;1.30;80.00;;;;;;6249668;28;20483;-62
2022/01/12 10:27:01;;;;;;;19.73;11.53;;;1.20;79.30;;;;;;6249732;28;20486;-63
2022/01/12 10:30:05;;;;;;;15.27;10.53;;;1.20;78.10;;;;;;6251678;28;20489;-63
2022/01/12 10:33:11;;;;;;;15.60;10.73;;;1.20;79.20;;;;;;6253521;28;20477;-63
2022/01/12 10:36:14;;;;;;;17.63;11.70;;;1.40;78.90;;;;;;6253187;28;20475;-61
2022/01/12 10:39:21;;;;;;;17.00;10.20;;;1.40;77.60;;;;;;6253661;28;20970;-62
2022/01/12 10:42:26;;;;;;;17.77;10.60;;;1.50;77.90;;;;;;6253004;28;20479;-61
2022/01/12 10:45:29;;;;;;;16.93;10.60;;;1.60;76.30;;;;;;6252373;28;20942;-63
2022/01/12 10:48:44;;;;;;;14.43;10.17;;;1.80;76.40;;;;;;6253319;28;20792;-63
2022/01/12 10:51:55;;;;;;;14.40;9.27;;;1.90;75.00;;;;;;6253572;28;20479;-62
2022/01/12 10:55:02;;;;;;;15.40;10.07;;;2.10;75.10;;;;;;6253174;28;20471;-63
2022/01/12 10:58:07;;;;;;;13.80;9.67;;;2.20;73.90;;;;;;6253354;28;20471;-63
2022/01/12 11:01:12;;;;;;;15.93;10.30;;;2.30;73.20;;;;;;6252447;28;20479;-63
2022/01/12 11:04:15;;;;;;;12.20;10.03;;;2.40;72.90;;;;;;6252737;28;20506;-63
2022/01/12 11:07:18;;;;;;;13.70;9.77;;;2.50;72.50;;;;;;6252372;28;20486;-63
2022/01/12 11:10:26;;;;;;;13.07;10.40;;;2.60;72.20;;;;;;6251905;28;20483;-64
2022/01/12 11:13:31;;;;;;;13.53;9.83;;;2.80;71.60;;;;;;6252620;28;20463;-64
2022/01/12 11:16:35;;;;;;;13.87;9.57;;;3.00;70.40;;;;;;6252089;28;20482;-64
2022/01/12 11:19:45;;;;;;;13.37;9.20;;;3.30;70.20;;;;;;6252444;28;20525;-66
2022/01/12 11:23:02;;;;;;;15.53;9.27;;;5.40;68.20;;;;;;6252053;28;20419;-66
2022/01/12 11:26:15;;;;;;;13.30;10.17;;;10.80;55.10;;;;;;6251580;28;20947;-66
2022/01/12 11:29:26;;;;;;;15.20;10.73;;;16.00;41.30;;;;;;6251750;28;20470;-66
2022/01/12 11:32:30;;;;;;;12.13;9.80;;;18.70;32.10;;;;;;6251452;28;20471;-65
2022/01/12 11:35:34;;;;;;;12.23;10.10;;;16.10;29.60;;;;;;6251919;28;20773;-66
2022/01/12 11:38:37;;;;;;;14.27;12.13;;;14.30;32.20;;;;;;6255160;28;20475;-63
2022/01/12 11:41:44;;;;;;;15.93;11.23;;;13.40;34.20;;;;;;6251730;28;20482;-63
2022/01/12 11:44:47;;;;;;;17.17;12.20;;;15.10;34.30;;;;;;6251863;28;20478;-63
2022/01/12 11:47:51;;;;;;;14.00;12.30;;;18.10;29.80;;;;;;6251890;28;20475;-66
2022/01/12 11:50:54;;;;;;;12.63;10.83;;;19.30;27.60;;;;;;6251618;28;20475;-65
2022/01/12 11:54:00;;;;;;;16.00;11.87;;;19.90;26.90;;;;;;6251828;28;20463;-65
2022/01/12 11:57:08;;;;;;;14.10;12.47;;;21.50;26.30;;;;;;6251604;28;20236;-65
2022/01/12 12:00:14;;;;;;;15.00;11.50;;;22.20;25.10;;;;;;6251495;28;20261;-65
2022/01/12 12:03:19;;;;;;;13.40;12.00;;;24.30;23.30;;;;;;6251189;28;20567;-66
2022/01/12 12:06:22;;;;;;;15.20;12.10;;;25.30;22.30;;;;;;6251308;28;20236;-66
2022/01/12 12:09:36;;;;;;;13.53;12.13;;;26.80;20.80;;;;;;6250828;28;20247;-66
2022/01/12 12:12:41;;;;;;;13.40;12.10;;;27.80;20.20;;;;;;6251060;28;20241;-66
2022/01/12 12:15:45;;;;;;;14.43;12.93;;;29.30;19.20;;;;;;6250971;28;20239;-64
2022/01/12 12:18:55;;;;;;;15.30;12.83;;;30.00;17.80;;;;;;6250788;28;20230;-66
2022/01/12 12:21:58;;;;;;;13.50;11.90;;;30.30;16.90;;;;;;6250904;28;20235;-63
2022/01/12 12:25:06;;;;;;;13.40;12.03;;;29.40;17.10;;;;;;6250355;28;20676;-63
2022/01/12 12:28:13;;;;;;;13.20;11.77;;;29.90;17.00;;;;;;6250438;28;20242;-64
2022/01/12 12:31:22;;;;;;;14.20;12.67;;;30.30;16.40;;;;;;6240915;28;20537;-64
2022/01/12 12:34:47;;;;;;;13.03;11.67;;;30.00;16.50;;;;;;6250318;28;20222;-68
2022/01/12 12:37:54;;;;;;;13.40;12.00;;;30.40;16.40;;;;;;6251031;28;20188;-66
2022/01/12 12:40:57;;;;;;;14.93;11.53;;;30.30;16.50;;;;;;6250844;28;20583;-66
2022/01/12 12:44:02;;;;;;;13.60;12.20;;;30.00;16.40;;;;;;6250280;28;20230;-66
2022/01/12 12:47:08;;;;;;;14.43;12.97;;;29.80;16.60;;;;;;6251280;28;20243;-67
2022/01/12 12:50:14;;;;;;;15.70;12.47;;;29.70;16.50;;;;;;6251744;28;20620;-67
2022/01/12 12:53:17;;;;;;;12.70;11.40;;;28.80;16.90;;;;;;6251914;28;20235;-67
2022/01/12 12:56:27;;;;;;;12.90;11.60;;;27.70;17.60;;;;;;6253556;28;20234;-67
2022/01/12 12:59:32;;;;;;;12.70;11.40;;;28.30;17.60;;;;;;6251062;28;20241;-66
2022/01/12 13:02:37;;;;;;;13.57;12.20;;;28.10;17.70;;;;;;6251974;28;20243;-67
2022/01/12 13:05:42;;;;;;;13.23;11.93;;;28.50;17.50;;;;;;6250982;28;20681;-67
2022/01/12 13:08:52;;;;;;;16.40;12.07;;;27.20;17.80;;;;;;6249583;28;20226;-67
2022/01/12 13:11:55;;;;;;;12.80;11.50;;;26.90;17.90;;;;;;6249444;28;20233;-66
2022/01/12 13:15:00;;;;;;;13.30;12.00;;;27.50;18.10;;;;;;6250319;28;20242;-67
2022/01/12 13:18:06;;;;;;;13.00;11.70;;;28.20;17.60;;;;;;6251760;28;20231;-67
2022/01/12 13:21:17;;;;;;;13.40;11.50;;;28.50;17.30;;;;;;6251954;28;20236;-66
2022/01/12 13:24:22;;;;;;;12.27;11.13;;;28.60;17.20;;;;;;6251287;28;20234;-68
2022/01/12 13:27:27;;;;;;;12.80;11.50;;;28.00;17.20;;;;;;6250861;28;20251;-67
2022/01/12 13:30:33;;;;;;;12.67;11.37;;;26.80;17.70;;;;;;6249571;28;20231;-66
2022/01/12 13:33:39;;;;;;;13.67;12.27;;;26.50;18.30;;;;;;6246180;28;20240;-67
2022/01/12 13:36:50;;;;;;;12.53;11.20;;;26.90;18.10;;;;;;6250443;28;20302;-67
2022/01/12 13:40:08;;;;;;;12.03;10.73;;;27.10;17.80;;;;;;6250283;28;20228;-66
2022/01/12 13:43:12;;;;;;;14.13;12.47;;;25.80;18.30;;;;;;6249442;28;20228;-66
2022/01/12 13:46:18;;;;;;;13.10;11.90;;;24.60;18.90;;;;;;6249763;28;20684;-67
2022/01/12 13:49:25;;;;;;;13.97;12.47;;;24.60;19.30;;;;;;6249567;28;20237;-66
2022/01/12 13:52:29;;;;;;;12.60;11.27;;;24.10;19.50;;;;;;6251099;28;20533;-67
2022/01/12 13:55:32;;;;;;;14.03;12.17;;;22.90;19.90;;;;;;6252895;28;20506;-67
2022/01/12 13:58:37;;;;;;;12.53;11.30;;;21.80;20.80;;;;;;6253384;28;20239;-67
2022/01/12 14:01:43;;;;;;;13.40;10.37;;;20.80;21.60;;;;;;6254134;28;20240;-66
2022/01/12 14:04:58;;;;;;;13.60;11.50;;;19.20;22.90;;;;;;6255733;28;20216;-66
2022/01/12 14:08:05;;;;;;;12.30;10.47;;;19.40;23.10;;;;;;6259016;28;20485;-66
2022/01/12 14:11:09;;;;;;;13.80;10.97;;;18.90;23.50;;;;;;6259094;28;20475;-66
2022/01/12 14:14:12;;;;;;;14.67;11.80;;;19.30;23.80;;;;;;6259313;28;20466;-66
2022/01/12 14:17:32;;;;;;;14.23;12.73;;;18.60;24.10;;;;;;6256128;28;20464;-66
2022/01/12 14:20:38;;;;;;;15.93;12.10;;;18.30;24.10;;;;;;6247419;28;20979;-66
2022/01/12 14:23:41;;;;;;;14.90;12.87;;;17.10;25.30;;;;;;6254052;28;20467;-67
2022/01/12 14:26:46;;;;;;;14.40;11.47;;;16.30;26.30;;;;;;6253857;28;20546;-66
2022/01/12 14:29:49;;;;;;;14.33;12.27;;;14.80;27.70;;;;;;6253810;28;20494;-65
2022/01/12 14:32:53;;;;;;;15.70;12.73;;;13.70;29.00;;;;;;6251850;28;20474;-64
2022/01/12 14:35:56;;;;;;;16.10;13.13;;;12.80;29.90;;;;;;6225051;28;20480;-64
2022/01/12 14:39:00;;;;;;;14.37;11.80;;;12.10;31.00;;;;;;6249109;28;20467;-64
2022/01/12 14:42:03;;;;;;;17.93;12.50;;;10.90;32.70;;;;;;6253258;28;20982;-66
2022/01/12 14:45:07;;;;;;;14.70;11.30;;;9.90;35.20;;;;;;6252781;28;20498;-66
2022/01/12 14:48:14;;;;;;;18.10;13.03;;;9.20;36.70;;;;;;6252922;28;20491;-65
2022/01/12 14:51:18;;;;;;;15.13;12.40;;;8.70;38.10;;;;;;6253418;28;20485;-64
2022/01/12 14:54:21;;;;;;;15.90;12.20;;;8.00;39.50;;;;;;6254397;28;20478;-65
2022/01/12 14:57:24;;;;;;;21.93;14.00;;;7.40;40.90;;;;;;6253671;28;20975;-64
2022/01/12 15:00:34;;;;;;;15.43;11.47;;;6.90;42.10;;;;;;6255477;28;20479;-65
2022/01/12 15:03:39;;;;;;;16.70;13.17;;;6.30;43.90;;;;;;6254025;28;20992;-64
2022/01/12 15:06:43;;;;;;;21.50;14.00;;;5.80;45.80;;;;;;6252932;28;20479;-65
2022/01/12 15:09:46;;;;;;;24.53;13.93;;;5.30;47.80;;;;;;6252486;28;20490;-63
2022/01/12 15:12:52;;;;;;;17.60;13.13;;;5.10;49.80;;;;;;6252901;28;20475;-64
2022/01/12 15:15:57;;;;;;;17.90;14.10;;;5.00;50.20;;;;;;6251219;28;20474;-64
2022/01/12 15:19:02;;;;;;;20.53;13.33;;;4.80;51.40;;;;;;6252329;28;20485;-65
2022/01/12 15:22:05;;;;;;;19.33;13.53;;;4.50;52.70;;;;;;6252199;28;20790;-64
2022/01/12 15:25:10;;;;;;;18.87;12.60;;;4.30;53.80;;;;;;6252075;28;20467;-63
2022/01/12 15:28:13;;;;;;;23.07;14.17;;;4.20;54.80;;;;;;6252119;28;20986;-65
2022/01/12 15:31:17;;;;;;;19.00;13.37;;;4.10;55.60;;;;;;6251759;28;20501;-66
2022/01/12 15:34:21;;;;;;;18.47;13.53;;;4.00;56.40;;;;;;6251893;28;20467;-65
2022/01/12 15:37:25;;;;;;;19.37;12.60;;;4.00;57.30;;;;;;6252008;28;20482;-65
2022/01/12 15:40:29;;;;;;;22.37;15.63;;;3.90;57.90;;;;;;6252221;28;20475;-65
2022/01/12 15:43:32;;;;;;;24.53;15.20;;;3.70;58.90;;;;;;6253854;28;20471;-65
2022/01/12 15:46:35;;;;;;;20.83;15.17;;;3.70;60.40;;;;;;6252517;28;20510;-65
2022/01/12 15:49:40;;;;;;;23.50;13.97;;;3.60;60.70;;;;;;6253722;28;20482;-64
2022/01/12 15:52:44;;;;;;;23.20;14.70;;;3.40;62.10;;;;;;6252389;28;20439;-66
2022/01/12 15:55:47;;;;;;;22.37;15.10;;;3.20;63.00;;;;;;6252905;28;21011;-66
2022/01/12 15:58:50;;;;;;;26.73;14.87;;;3.20;64.70;;;;;;6253307;28;20446;-66
2022/01/12 16:01:53;;;;;;;22.20;14.57;;;3.00;65.00;;;;;;6252508;28;20466;-66
2022/01/12 16:04:58;;;;;;;22.60;16.43;;;3.00;66.00;;;;;;6251980;28;20457;-65
2022/01/12 16:08:02;;;;;;;21.17;15.20;;;2.90;66.50;;;;;;6237574;28;20468;-63
2022/01/12 16:11:09;;;;;;;22.80;15.63;;;2.90;67.20;;;;;;6238858;28;20884;-65
2022/01/12 16:14:12;;;;;;;24.20;14.87;;;2.90;67.70;;;;;;6240318;28;20471;-64
2022/01/12 16:17:19;;;;;;;23.47;14.87;;;2.80;68.30;;;;;;6238081;28;20471;-64
2022/01/12 16:20:26;;;;;;;24.97;16.27;;;2.80;68.40;;;;;;6242059;28;20490;-63
2022/01/12 16:23:30;;;;;;;22.60;14.30;;;2.70;69.30;;;;;;6251373;28;20474;-64
2022/01/12 16:26:33;;;;;;;25.80;16.70;;;2.70;70.00;;;;;;6250936;28;20475;-65
2022/01/12 16:29:38;;;;;;;26.10;16.67;;;2.60;70.50;;;;;;6250993;28;20477;-64
2022/01/12 16:32:41;;;;;;;37.10;21.70;;;2.40;71.50;;;;;;6250570;28;20493;-64
2022/01/12 16:35:46;;;;;;;27.57;17.83;;;2.40;72.60;;;;;;6250949;28;20486;-65
2022/01/12 16:38:50;;;;;;;25.00;17.73;;;2.40;72.90;;;;;;6250617;28;20489;-64
2022/01/12 16:41:53;;;;;;;32.13;17.70;;;2.40;73.70;;;;;;6251510;28;20475;-66
2022/01/12 16:44:57;;;;;;;25.40;16.90;;;2.30;75.00;;;;;;6243856;28;20494;-67
2022/01/12 16:48:00;;;;;;;23.37;17.17;;;2.40;74.30;;;;;;6252342;28;20487;-66
2022/01/12 16:51:05;;;;;;;26.90;17.77;;;2.40;74.70;;;;;;6253279;28;20479;-67
2022/01/12 16:54:08;;;;;;;22.43;15.60;;;2.40;75.10;;;;;;6253359;28;20471;-67